sensor_id;sensor_type;location;lat;lon;timestamp;P1;durP1;ratioP1;P2;durP2;ratioP2
43706;SDS011;61348;53.392;-6.248;2023-04-03T00:00:32;9.68;;;4.28;;
43706;SDS011;61348;53.392;-6.248;2023-04-03T00:03:00;5.30;;;2.40;;
43706;SDS011;61348;53.392;-6.248;2023-04-03T00:05:26;5.72;;;2.20;;
43706;SDS011;61348;53.392;-6.248;2023-04-03T00:07:53;3.33;;;2.35;;
43706;SDS011;61348;53.392;-6.248;2023-04-03T00:10:20;7.18;;;1.88;;
43706;SDS011;61348;53.392;-6.248;2023-04-03T00:12:47;4.25;;;1.73;;
43706;SDS011;61348;53.392;-6.248;2023-04-03T00:15:13;5.95;;;1.45;;
43706;SDS011;61348;53.392;-6.248;2023-04-03T00:17:41;6.10;;;1.58;;
43706;SDS011;61348;53.392;-6.248;2023-04-03T00:20:08;3.95;;;1.80;;
43706;SDS011;61348;53.392;-6.248;2023-04-03T00:22:35;4.25;;;2.10;;
43706;SDS011;61348;53.392;-6.248;2023-04-03T00:25:02;3.67;;;1.85;;
43706;SDS011;61348;53.392;-6.248;2023-04-03T00:27:29;3.30;;;1.80;;
43706;SDS011;61348;53.392;-6.248;2023-04-03T00:29:56;6.05;;;2.00;;
43706;SDS011;61348;53.392;-6.248;2023-04-03T00:32:22;5.38;;;3.47;;
43706;SDS011;61348;53.392;-6.248;2023-04-03T00:34:49;3.20;;;2.45;;
43706;SDS011;61348;53.392;-6.248;2023-04-03T00:37:16;4.05;;;2.13;;
43706;SDS011;61348;53.392;-6.248;2023-04-03T00:39:43;3.83;;;2.42;;
43706;SDS011;61348;53.392;-6.248;2023-04-03T00:42:09;7.78;;;2.65;;
43706;SDS011;61348;53.392;-6.248;2023-04-03T00:47:04;6.45;;;2.00;;
43706;SDS011;61348;53.392;-6.248;2023-04-03T00:49:33;6.07;;;3.08;;
43706;SDS011;61348;53.392;-6.248;2023-04-03T00:52:01;7.13;;;1.92;;
43706;SDS011;61348;53.392;-6.248;2023-04-03T00:54:28;7.38;;;2.38;;
43706;SDS011;61348;53.392;-6.248;2023-04-03T00:56:56;3.60;;;1.73;;
43706;SDS011;61348;53.392;-6.248;2023-04-03T00:59:25;6.18;;;1.58;;
43706;SDS011;61348;53.392;-6.248;2023-04-03T01:01:56;2.25;;;1.40;;
43706;SDS011;61348;53.392;-6.248;2023-04-03T01:07:42;8.23;;;4.03;;
43706;SDS011;61348;53.392;-6.248;2023-04-03T01:09:53;4.25;;;1.48;;
43706;SDS011;61348;53.392;-6.248;2023-04-03T01:12:31;3.63;;;1.83;;
43706;SDS011;61348;53.392;-6.248;2023-04-03T01:15:06;3.95;;;1.42;;
43706;SDS011;61348;53.392;-6.248;2023-04-03T01:17:40;4.00;;;1.33;;
43706;SDS011;61348;53.392;-6.248;2023-04-03T01:25:39;10.00;;;1.67;;
43706;SDS011;61348;53.392;-6.248;2023-04-03T01:28:08;3.20;;;1.42;;
43706;SDS011;61348;53.392;-6.248;2023-04-03T01:30:41;4.82;;;1.70;;
43706;SDS011;61348;53.392;-6.248;2023-04-03T01:33:14;6.30;;;2.63;;
43706;SDS011;61348;53.392;-6.248;2023-04-03T01:35:41;5.85;;;2.53;;
43706;SDS011;61348;53.392;-6.248;2023-04-03T01:38:08;12.77;;;3.38;;
43706;SDS011;61348;53.392;-6.248;2023-04-03T01:40:34;10.35;;;4.30;;
43706;SDS011;61348;53.392;-6.248;2023-04-03T01:43:02;14.60;;;4.30;;
43706;SDS011;61348;53.392;-6.248;2023-04-03T01:45:29;5.60;;;2.40;;
43706;SDS011;61348;53.392;-6.248;2023-04-03T01:47:56;6.40;;;2.30;;
43706;SDS011;61348;53.392;-6.248;2023-04-03T01:50:23;7.97;;;3.30;;
43706;SDS011;61348;53.392;-6.248;2023-04-03T01:52:49;3.78;;;2.13;;
43706;SDS011;61348;53.392;-6.248;2023-04-03T01:55:16;6.68;;;2.72;;
43706;SDS011;61348;53.392;-6.248;2023-04-03T01:57:43;7.35;;;1.95;;
43706;SDS011;61348;53.392;-6.248;2023-04-03T02:00:09;4.63;;;1.40;;
43706;SDS011;61348;53.392;-6.248;2023-04-03T02:02:36;3.63;;;1.50;;
43706;SDS011;61348;53.392;-6.248;2023-04-03T02:05:03;5.00;;;1.90;;
43706;SDS011;61348;53.392;-6.248;2023-04-03T02:07:31;5.32;;;1.80;;
43706;SDS011;61348;53.392;-6.248;2023-04-03T02:09:57;5.40;;;1.80;;
43706;SDS011;61348;53.392;-6.248;2023-04-03T02:12:24;5.35;;;1.65;;
43706;SDS011;61348;53.392;-6.248;2023-04-03T02:14:51;5.55;;;1.60;;
43706;SDS011;61348;53.392;-6.248;2023-04-03T02:17:17;4.13;;;1.80;;
43706;SDS011;61348;53.392;-6.248;2023-04-03T02:19:44;5.28;;;1.83;;
43706;SDS011;61348;53.392;-6.248;2023-04-03T02:22:11;2.03;;;1.48;;
43706;SDS011;61348;53.392;-6.248;2023-04-03T02:24:37;6.85;;;2.45;;
43706;SDS011;61348;53.392;-6.248;2023-04-03T02:27:06;4.25;;;1.77;;
43706;SDS011;61348;53.392;-6.248;2023-04-03T02:29:33;4.15;;;1.58;;
43706;SDS011;61348;53.392;-6.248;2023-04-03T02:31:59;3.60;;;1.70;;
43706;SDS011;61348;53.392;-6.248;2023-04-03T02:34:26;5.45;;;2.30;;
43706;SDS011;61348;53.392;-6.248;2023-04-03T02:36:53;4.28;;;1.92;;
43706;SDS011;61348;53.392;-6.248;2023-04-03T02:39:20;6.00;;;1.98;;
43706;SDS011;61348;53.392;-6.248;2023-04-03T02:41:47;4.05;;;2.08;;
43706;SDS011;61348;53.392;-6.248;2023-04-03T02:44:13;6.30;;;2.65;;
43706;SDS011;61348;53.392;-6.248;2023-04-03T02:46:40;4.82;;;2.10;;
43706;SDS011;61348;53.392;-6.248;2023-04-03T02:49:07;4.95;;;2.35;;
43706;SDS011;61348;53.392;-6.248;2023-04-03T02:51:34;2.90;;;1.73;;
43706;SDS011;61348;53.392;-6.248;2023-04-03T02:54:01;7.97;;;3.20;;
43706;SDS011;61348;53.392;-6.248;2023-04-03T02:56:27;3.63;;;1.95;;
43706;SDS011;61348;53.392;-6.248;2023-04-03T02:58:54;8.15;;;4.28;;
43706;SDS011;61348;53.392;-6.248;2023-04-03T03:01:21;8.85;;;3.45;;
43706;SDS011;61348;53.392;-6.248;2023-04-03T03:03:48;7.65;;;3.47;;
43706;SDS011;61348;53.392;-6.248;2023-04-03T03:06:15;8.45;;;3.60;;
43706;SDS011;61348;53.392;-6.248;2023-04-03T03:08:43;15.88;;;6.15;;
43706;SDS011;61348;53.392;-6.248;2023-04-03T03:11:10;17.20;;;7.57;;
43706;SDS011;61348;53.392;-6.248;2023-04-03T03:13:38;22.02;;;9.38;;
43706;SDS011;61348;53.392;-6.248;2023-04-03T03:16:05;14.63;;;6.70;;
43706;SDS011;61348;53.392;-6.248;2023-04-03T03:18:32;9.65;;;4.82;;
43706;SDS011;61348;53.392;-6.248;2023-04-03T03:21:00;9.77;;;3.97;;
43706;SDS011;61348;53.392;-6.248;2023-04-03T03:23:28;10.70;;;3.85;;
43706;SDS011;61348;53.392;-6.248;2023-04-03T03:25:57;12.38;;;4.13;;
43706;SDS011;61348;53.392;-6.248;2023-04-03T03:28:25;7.32;;;2.42;;
43706;SDS011;61348;53.392;-6.248;2023-04-03T03:30:52;11.10;;;4.93;;
43706;SDS011;61348;53.392;-6.248;2023-04-03T03:33:19;12.40;;;3.15;;
43706;SDS011;61348;53.392;-6.248;2023-04-03T03:35:46;6.95;;;3.05;;
43706;SDS011;61348;53.392;-6.248;2023-04-03T03:38:13;7.13;;;2.47;;
43706;SDS011;61348;53.392;-6.248;2023-04-03T03:40:39;9.93;;;2.90;;
43706;SDS011;61348;53.392;-6.248;2023-04-03T03:43:06;5.72;;;2.55;;
43706;SDS011;61348;53.392;-6.248;2023-04-03T03:45:33;10.70;;;3.05;;
43706;SDS011;61348;53.392;-6.248;2023-04-03T03:48:00;7.50;;;3.13;;
43706;SDS011;61348;53.392;-6.248;2023-04-03T03:50:28;4.22;;;2.47;;
43706;SDS011;61348;53.392;-6.248;2023-04-03T03:52:54;8.55;;;2.67;;
43706;SDS011;61348;53.392;-6.248;2023-04-03T03:55:21;9.27;;;3.20;;
43706;SDS011;61348;53.392;-6.248;2023-04-03T03:57:48;8.57;;;2.65;;
43706;SDS011;61348;53.392;-6.248;2023-04-03T04:00:15;7.13;;;3.30;;
43706;SDS011;61348;53.392;-6.248;2023-04-03T04:02:42;6.28;;;3.72;;
43706;SDS011;61348;53.392;-6.248;2023-04-03T04:05:09;6.30;;;3.30;;
43706;SDS011;61348;53.392;-6.248;2023-04-03T04:07:36;7.57;;;3.10;;
43706;SDS011;61348;53.392;-6.248;2023-04-03T04:10:03;8.95;;;3.70;;
43706;SDS011;61348;53.392;-6.248;2023-04-03T04:12:30;8.55;;;2.67;;
43706;SDS011;61348;53.392;-6.248;2023-04-03T04:14:57;7.82;;;3.13;;
43706;SDS011;61348;53.392;-6.248;2023-04-03T04:17:23;6.20;;;2.72;;
43706;SDS011;61348;53.392;-6.248;2023-04-03T04:19:50;13.48;;;4.05;;
43706;SDS011;61348;53.392;-6.248;2023-04-03T04:22:17;6.82;;;3.30;;
43706;SDS011;61348;53.392;-6.248;2023-04-03T04:24:43;7.07;;;3.42;;
43706;SDS011;61348;53.392;-6.248;2023-04-03T04:27:10;7.10;;;3.50;;
43706;SDS011;61348;53.392;-6.248;2023-04-03T04:29:37;7.68;;;3.05;;
43706;SDS011;61348;53.392;-6.248;2023-04-03T04:32:04;7.85;;;3.72;;
43706;SDS011;61348;53.392;-6.248;2023-04-03T04:34:31;18.08;;;4.47;;
43706;SDS011;61348;53.392;-6.248;2023-04-03T04:36:58;6.20;;;3.53;;
43706;SDS011;61348;53.392;-6.248;2023-04-03T04:39:25;9.60;;;4.22;;
43706;SDS011;61348;53.392;-6.248;2023-04-03T04:41:51;11.18;;;4.30;;
43706;SDS011;61348;53.392;-6.248;2023-04-03T04:44:18;5.70;;;3.40;;
43706;SDS011;61348;53.392;-6.248;2023-04-03T04:46:46;5.70;;;3.80;;
43706;SDS011;61348;53.392;-6.248;2023-04-03T04:49:13;8.38;;;3.97;;
43706;SDS011;61348;53.392;-6.248;2023-04-03T04:51:40;5.97;;;3.80;;
43706;SDS011;61348;53.392;-6.248;2023-04-03T04:54:17;6.53;;;4.45;;
43706;SDS011;61348;53.392;-6.248;2023-04-03T04:56:44;11.82;;;5.70;;
43706;SDS011;61348;53.392;-6.248;2023-04-03T04:59:11;9.00;;;4.68;;
43706;SDS011;61348;53.392;-6.248;2023-04-03T05:01:38;9.68;;;4.72;;
43706;SDS011;61348;53.392;-6.248;2023-04-03T05:04:05;8.50;;;4.43;;
43706;SDS011;61348;53.392;-6.248;2023-04-03T05:06:32;8.10;;;5.40;;
43706;SDS011;61348;53.392;-6.248;2023-04-03T05:08:59;9.10;;;6.15;;
43706;SDS011;61348;53.392;-6.248;2023-04-03T05:11:26;8.30;;;4.53;;
43706;SDS011;61348;53.392;-6.248;2023-04-03T05:13:53;7.40;;;4.45;;
43706;SDS011;61348;53.392;-6.248;2023-04-03T05:16:19;8.65;;;5.15;;
43706;SDS011;61348;53.392;-6.248;2023-04-03T05:18:46;5.70;;;3.92;;
43706;SDS011;61348;53.392;-6.248;2023-04-03T05:21:13;9.88;;;5.88;;
43706;SDS011;61348;53.392;-6.248;2023-04-03T05:23:39;7.22;;;4.60;;
43706;SDS011;61348;53.392;-6.248;2023-04-03T05:26:06;6.75;;;4.07;;
43706;SDS011;61348;53.392;-6.248;2023-04-03T05:28:33;6.80;;;4.10;;
43706;SDS011;61348;53.392;-6.248;2023-04-03T05:31:00;8.02;;;4.28;;
43706;SDS011;61348;53.392;-6.248;2023-04-03T05:33:27;9.60;;;4.75;;
43706;SDS011;61348;53.392;-6.248;2023-04-03T05:35:54;12.60;;;5.80;;
43706;SDS011;61348;53.392;-6.248;2023-04-03T05:38:21;7.20;;;4.45;;
43706;SDS011;61348;53.392;-6.248;2023-04-03T05:40:48;8.38;;;4.50;;
43706;SDS011;61348;53.392;-6.248;2023-04-03T05:43:14;8.85;;;4.43;;
43706;SDS011;61348;53.392;-6.248;2023-04-03T05:45:42;7.47;;;4.70;;
43706;SDS011;61348;53.392;-6.248;2023-04-03T05:48:12;7.72;;;4.72;;
43706;SDS011;61348;53.392;-6.248;2023-04-03T05:50:39;8.50;;;5.05;;
43706;SDS011;61348;53.392;-6.248;2023-04-03T05:53:12;7.85;;;5.15;;
43706;SDS011;61348;53.392;-6.248;2023-04-03T05:55:53;9.82;;;6.45;;
43706;SDS011;61348;53.392;-6.248;2023-04-03T05:58:20;10.95;;;5.25;;
43706;SDS011;61348;53.392;-6.248;2023-04-03T06:00:47;19.20;;;7.57;;
43706;SDS011;61348;53.392;-6.248;2023-04-03T06:03:13;10.60;;;6.10;;
43706;SDS011;61348;53.392;-6.248;2023-04-03T06:05:40;14.27;;;6.85;;
43706;SDS011;61348;53.392;-6.248;2023-04-03T06:08:08;21.02;;;7.80;;
43706;SDS011;61348;53.392;-6.248;2023-04-03T06:10:35;17.73;;;6.65;;
43706;SDS011;61348;53.392;-6.248;2023-04-03T06:13:02;16.90;;;8.13;;
43706;SDS011;61348;53.392;-6.248;2023-04-03T06:15:29;16.35;;;7.70;;
43706;SDS011;61348;53.392;-6.248;2023-04-03T06:17:56;17.65;;;7.63;;
43706;SDS011;61348;53.392;-6.248;2023-04-03T06:20:23;17.35;;;7.60;;
43706;SDS011;61348;53.392;-6.248;2023-04-03T06:22:50;15.15;;;7.75;;
43706;SDS011;61348;53.392;-6.248;2023-04-03T06:25:17;13.27;;;7.18;;
43706;SDS011;61348;53.392;-6.248;2023-04-03T06:27:45;22.20;;;8.10;;
43706;SDS011;61348;53.392;-6.248;2023-04-03T06:30:12;16.65;;;9.73;;
43706;SDS011;61348;53.392;-6.248;2023-04-03T06:32:39;21.95;;;7.38;;
43706;SDS011;61348;53.392;-6.248;2023-04-03T06:35:06;16.25;;;7.72;;
43706;SDS011;61348;53.392;-6.248;2023-04-03T06:37:33;14.32;;;6.85;;
43706;SDS011;61348;53.392;-6.248;2023-04-03T06:40:00;20.70;;;9.10;;
43706;SDS011;61348;53.392;-6.248;2023-04-03T06:42:27;17.83;;;8.25;;
43706;SDS011;61348;53.392;-6.248;2023-04-03T06:44:54;27.58;;;7.13;;
43706;SDS011;61348;53.392;-6.248;2023-04-03T06:47:21;19.13;;;7.18;;
43706;SDS011;61348;53.392;-6.248;2023-04-03T06:49:48;28.65;;;8.70;;
43706;SDS011;61348;53.392;-6.248;2023-04-03T06:52:15;14.25;;;7.20;;
43706;SDS011;61348;53.392;-6.248;2023-04-03T06:54:41;18.45;;;7.18;;
43706;SDS011;61348;53.392;-6.248;2023-04-03T06:57:08;19.52;;;6.72;;
43706;SDS011;61348;53.392;-6.248;2023-04-03T06:59:35;15.77;;;6.75;;
43706;SDS011;61348;53.392;-6.248;2023-04-03T07:02:03;17.77;;;8.82;;
43706;SDS011;61348;53.392;-6.248;2023-04-03T07:04:30;18.00;;;7.43;;
43706;SDS011;61348;53.392;-6.248;2023-04-03T07:06:57;18.25;;;7.95;;
43706;SDS011;61348;53.392;-6.248;2023-04-03T07:09:23;18.08;;;7.07;;
43706;SDS011;61348;53.392;-6.248;2023-04-03T07:11:50;14.43;;;7.03;;
43706;SDS011;61348;53.392;-6.248;2023-04-03T07:14:17;12.05;;;6.72;;
43706;SDS011;61348;53.392;-6.248;2023-04-03T07:16:44;13.88;;;6.18;;
43706;SDS011;61348;53.392;-6.248;2023-04-03T07:19:11;14.90;;;6.10;;
43706;SDS011;61348;53.392;-6.248;2023-04-03T07:21:38;17.85;;;9.45;;
43706;SDS011;61348;53.392;-6.248;2023-04-03T07:24:05;19.83;;;5.60;;
43706;SDS011;61348;53.392;-6.248;2023-04-03T07:26:34;15.35;;;6.32;;
43706;SDS011;61348;53.392;-6.248;2023-04-03T07:29:01;16.38;;;6.25;;
43706;SDS011;61348;53.392;-6.248;2023-04-03T07:31:28;15.52;;;5.82;;
43706;SDS011;61348;53.392;-6.248;2023-04-03T07:33:56;12.50;;;5.30;;
43706;SDS011;61348;53.392;-6.248;2023-04-03T07:36:23;14.38;;;6.63;;
43706;SDS011;61348;53.392;-6.248;2023-04-03T07:38:50;15.70;;;5.80;;
43706;SDS011;61348;53.392;-6.248;2023-04-03T07:41:18;19.65;;;6.20;;
43706;SDS011;61348;53.392;-6.248;2023-04-03T07:43:46;16.65;;;5.22;;
43706;SDS011;61348;53.392;-6.248;2023-04-03T07:46:13;19.42;;;5.78;;
43706;SDS011;61348;53.392;-6.248;2023-04-03T07:48:40;18.23;;;4.15;;
43706;SDS011;61348;53.392;-6.248;2023-04-03T07:51:07;17.23;;;5.47;;
43706;SDS011;61348;53.392;-6.248;2023-04-03T07:53:33;9.82;;;4.93;;
43706;SDS011;61348;53.392;-6.248;2023-04-03T07:56:00;8.70;;;4.20;;
43706;SDS011;61348;53.392;-6.248;2023-04-03T07:58:29;14.30;;;5.03;;
43706;SDS011;61348;53.392;-6.248;2023-04-03T08:00:56;14.68;;;4.88;;
43706;SDS011;61348;53.392;-6.248;2023-04-03T08:03:23;18.60;;;4.40;;
43706;SDS011;61348;53.392;-6.248;2023-04-03T08:05:50;11.63;;;3.92;;
43706;SDS011;61348;53.392;-6.248;2023-04-03T08:08:19;14.65;;;3.42;;
43706;SDS011;61348;53.392;-6.248;2023-04-03T08:10:49;13.13;;;4.05;;
43706;SDS011;61348;53.392;-6.248;2023-04-03T08:13:20;13.40;;;4.15;;
43706;SDS011;61348;53.392;-6.248;2023-04-03T08:15:47;21.77;;;4.43;;
43706;SDS011;61348;53.392;-6.248;2023-04-03T08:18:14;18.30;;;4.20;;
43706;SDS011;61348;53.392;-6.248;2023-04-03T08:20:42;16.00;;;4.38;;
43706;SDS011;61348;53.392;-6.248;2023-04-03T08:23:09;14.80;;;3.45;;
43706;SDS011;61348;53.392;-6.248;2023-04-03T08:25:39;9.52;;;2.67;;
43706;SDS011;61348;53.392;-6.248;2023-04-03T08:28:08;14.80;;;4.28;;
43706;SDS011;61348;53.392;-6.248;2023-04-03T08:30:35;12.07;;;3.25;;
43706;SDS011;61348;53.392;-6.248;2023-04-03T08:33:05;12.82;;;3.38;;
43706;SDS011;61348;53.392;-6.248;2023-04-03T08:35:32;17.95;;;6.05;;
43706;SDS011;61348;53.392;-6.248;2023-04-03T08:38:01;8.48;;;3.00;;
43706;SDS011;61348;53.392;-6.248;2023-04-03T08:40:28;12.35;;;3.60;;
43706;SDS011;61348;53.392;-6.248;2023-04-03T08:45:36;10.70;;;3.70;;
43706;SDS011;61348;53.392;-6.248;2023-04-03T08:48:21;10.18;;;3.15;;
43706;SDS011;61348;53.392;-6.248;2023-04-03T08:50:53;23.17;;;4.63;;
43706;SDS011;61348;53.392;-6.248;2023-04-03T08:53:29;13.60;;;3.72;;
43706;SDS011;61348;53.392;-6.248;2023-04-03T08:56:02;16.95;;;3.83;;
43706;SDS011;61348;53.392;-6.248;2023-04-03T08:58:41;9.98;;;3.35;;
43706;SDS011;61348;53.392;-6.248;2023-04-03T09:01:19;19.67;;;4.80;;
43706;SDS011;61348;53.392;-6.248;2023-04-03T09:03:49;14.48;;;4.35;;
43706;SDS011;61348;53.392;-6.248;2023-04-03T09:06:21;20.85;;;4.15;;
43706;SDS011;61348;53.392;-6.248;2023-04-03T09:09:24;12.60;;;4.03;;
43706;SDS011;61348;53.392;-6.248;2023-04-03T09:20:31;11.98;;;3.35;;
43706;SDS011;61348;53.392;-6.248;2023-04-03T09:23:19;12.10;;;3.60;;
43706;SDS011;61348;53.392;-6.248;2023-04-03T09:25:51;9.52;;;3.75;;
43706;SDS011;61348;53.392;-6.248;2023-04-03T09:28:23;10.73;;;3.55;;
43706;SDS011;61348;53.392;-6.248;2023-04-03T09:30:49;6.63;;;2.92;;
43706;SDS011;61348;53.392;-6.248;2023-04-03T09:33:16;18.48;;;4.00;;
43706;SDS011;61348;53.392;-6.248;2023-04-03T09:35:43;13.05;;;3.88;;
43706;SDS011;61348;53.392;-6.248;2023-04-03T09:38:18;9.68;;;3.83;;
43706;SDS011;61348;53.392;-6.248;2023-04-03T09:40:51;12.68;;;4.78;;
43706;SDS011;61348;53.392;-6.248;2023-04-03T09:43:32;13.70;;;4.18;;
43706;SDS011;61348;53.392;-6.248;2023-04-03T09:46:17;10.75;;;3.08;;
43706;SDS011;61348;53.392;-6.248;2023-04-03T09:49:09;11.27;;;3.35;;
43706;SDS011;61348;53.392;-6.248;2023-04-03T09:51:38;11.65;;;3.78;;
43706;SDS011;61348;53.392;-6.248;2023-04-03T09:54:24;14.23;;;3.83;;
43706;SDS011;61348;53.392;-6.248;2023-04-03T09:57:14;12.23;;;3.10;;
43706;SDS011;61348;53.392;-6.248;2023-04-03T09:59:56;11.00;;;4.00;;
43706;SDS011;61348;53.392;-6.248;2023-04-03T10:02:38;6.00;;;2.65;;
43706;SDS011;61348;53.392;-6.248;2023-04-03T10:08:08;7.97;;;3.30;;
43706;SDS011;61348;53.392;-6.248;2023-04-03T10:10:36;24.15;;;5.38;;
43706;SDS011;61348;53.392;-6.248;2023-04-03T10:15:55;11.35;;;4.32;;
43706;SDS011;61348;53.392;-6.248;2023-04-03T10:18:37;16.48;;;4.22;;
43706;SDS011;61348;53.392;-6.248;2023-04-03T10:27:18;11.70;;;3.65;;
43706;SDS011;61348;53.392;-6.248;2023-04-03T10:30:08;21.07;;;3.73;;
43706;SDS011;61348;53.392;-6.248;2023-04-03T10:38:31;16.70;;;3.63;;
43706;SDS011;61348;53.392;-6.248;2023-04-03T10:41:12;16.27;;;4.70;;
43706;SDS011;61348;53.392;-6.248;2023-04-03T10:43:53;15.27;;;3.40;;
43706;SDS011;61348;53.392;-6.248;2023-04-03T10:46:35;14.65;;;5.15;;
43706;SDS011;61348;53.392;-6.248;2023-04-03T10:49:18;14.65;;;4.35;;
43706;SDS011;61348;53.392;-6.248;2023-04-03T10:51:55;15.88;;;4.88;;
43706;SDS011;61348;53.392;-6.248;2023-04-03T10:54:26;16.50;;;4.57;;
43706;SDS011;61348;53.392;-6.248;2023-04-03T10:57:08;22.48;;;5.97;;
43706;SDS011;61348;53.392;-6.248;2023-04-03T10:59:49;14.13;;;4.53;;
43706;SDS011;61348;53.392;-6.248;2023-04-03T11:02:30;13.88;;;4.28;;
43706;SDS011;61348;53.392;-6.248;2023-04-03T11:05:06;16.02;;;4.30;;
43706;SDS011;61348;53.392;-6.248;2023-04-03T11:07:48;15.57;;;5.90;;
43706;SDS011;61348;53.392;-6.248;2023-04-03T11:13:00;16.88;;;4.50;;
43706;SDS011;61348;53.392;-6.248;2023-04-03T11:15:34;17.00;;;4.18;;
43706;SDS011;61348;53.392;-6.248;2023-04-03T11:18:03;12.23;;;4.10;;
43706;SDS011;61348;53.392;-6.248;2023-04-03T11:20:37;13.55;;;4.70;;
43706;SDS011;61348;53.392;-6.248;2023-04-03T11:23:26;18.70;;;5.00;;
43706;SDS011;61348;53.392;-6.248;2023-04-03T11:26:15;31.13;;;5.97;;
43706;SDS011;61348;53.392;-6.248;2023-04-03T11:28:44;14.35;;;6.03;;
43706;SDS011;61348;53.392;-6.248;2023-04-03T11:34:15;12.90;;;5.63;;
43706;SDS011;61348;53.392;-6.248;2023-04-03T11:37:03;16.87;;;4.53;;
43706;SDS011;61348;53.392;-6.248;2023-04-03T11:39:39;17.33;;;6.43;;
43706;SDS011;61348;53.392;-6.248;2023-04-03T11:42:15;12.88;;;5.32;;
43706;SDS011;61348;53.392;-6.248;2023-04-03T11:45:31;13.07;;;4.60;;
43706;SDS011;61348;53.392;-6.248;2023-04-03T11:47:51;22.05;;;6.85;;
43706;SDS011;61348;53.392;-6.248;2023-04-03T11:50:40;18.20;;;5.90;;
43706;SDS011;61348;53.392;-6.248;2023-04-03T11:55:42;20.27;;;5.50;;
43706;SDS011;61348;53.392;-6.248;2023-04-03T11:58:16;14.65;;;4.95;;
43706;SDS011;61348;53.392;-6.248;2023-04-03T12:13:41;19.00;;;6.00;;
43706;SDS011;61348;53.392;-6.248;2023-04-03T12:16:22;19.70;;;6.15;;
43706;SDS011;61348;53.392;-6.248;2023-04-03T12:21:20;22.13;;;6.38;;
43706;SDS011;61348;53.392;-6.248;2023-04-03T12:46:43;19.45;;;4.78;;
43706;SDS011;61348;53.392;-6.248;2023-04-03T12:49:14;16.23;;;5.45;;
43706;SDS011;61348;53.392;-6.248;2023-04-03T12:52:02;20.45;;;5.53;;
43706;SDS011;61348;53.392;-6.248;2023-04-03T12:54:34;15.05;;;4.43;;
43706;SDS011;61348;53.392;-6.248;2023-04-03T12:59:41;17.63;;;5.03;;
43706;SDS011;61348;53.392;-6.248;2023-04-03T13:04:47;14.00;;;4.13;;
43706;SDS011;61348;53.392;-6.248;2023-04-03T13:07:19;16.60;;;4.30;;
43706;SDS011;61348;53.392;-6.248;2023-04-03T13:12:33;13.45;;;4.32;;
43706;SDS011;61348;53.392;-6.248;2023-04-03T13:15:11;16.58;;;4.88;;
43706;SDS011;61348;53.392;-6.248;2023-04-03T13:17:44;23.40;;;5.28;;
43706;SDS011;61348;53.392;-6.248;2023-04-03T13:20:14;12.73;;;4.32;;
43706;SDS011;61348;53.392;-6.248;2023-04-03T13:25:27;11.70;;;5.18;;
43706;SDS011;61348;53.392;-6.248;2023-04-03T13:27:58;22.05;;;4.82;;
43706;SDS011;61348;53.392;-6.248;2023-04-03T13:30:40;28.65;;;7.20;;
43706;SDS011;61348;53.392;-6.248;2023-04-03T13:33:22;14.45;;;4.80;;
43706;SDS011;61348;53.392;-6.248;2023-04-03T13:36:02;12.63;;;4.63;;
43706;SDS011;61348;53.392;-6.248;2023-04-03T13:38:33;13.45;;;4.75;;
43706;SDS011;61348;53.392;-6.248;2023-04-03T13:41:04;19.10;;;5.07;;
43706;SDS011;61348;53.392;-6.248;2023-04-03T13:43:48;16.60;;;4.78;;
43706;SDS011;61348;53.392;-6.248;2023-04-03T13:48:44;17.85;;;6.50;;
43706;SDS011;61348;53.392;-6.248;2023-04-03T13:51:24;16.48;;;4.32;;
43706;SDS011;61348;53.392;-6.248;2023-04-03T13:54:00;17.92;;;4.55;;
43706;SDS011;61348;53.392;-6.248;2023-04-03T13:56:39;18.70;;;5.15;;
43706;SDS011;61348;53.392;-6.248;2023-04-03T14:01:54;18.35;;;5.75;;
43706;SDS011;61348;53.392;-6.248;2023-04-03T14:04:44;17.92;;;4.13;;
43706;SDS011;61348;53.392;-6.248;2023-04-03T14:07:12;11.88;;;4.10;;
43706;SDS011;61348;53.392;-6.248;2023-04-03T14:09:40;11.10;;;3.42;;
43706;SDS011;61348;53.392;-6.248;2023-04-03T14:12:29;9.00;;;3.95;;
43706;SDS011;61348;53.392;-6.248;2023-04-03T14:14:58;15.45;;;4.35;;
43706;SDS011;61348;53.392;-6.248;2023-04-03T14:17:27;13.68;;;4.38;;
43706;SDS011;61348;53.392;-6.248;2023-04-03T14:19:55;16.08;;;3.85;;
43706;SDS011;61348;53.392;-6.248;2023-04-03T14:22:27;16.80;;;4.57;;
43706;SDS011;61348;53.392;-6.248;2023-04-03T14:24:56;16.65;;;4.97;;
43706;SDS011;61348;53.392;-6.248;2023-04-03T14:27:28;12.55;;;4.40;;
43706;SDS011;61348;53.392;-6.248;2023-04-03T14:30:00;13.75;;;4.50;;
43706;SDS011;61348;53.392;-6.248;2023-04-03T14:32:29;13.90;;;4.85;;
43706;SDS011;61348;53.392;-6.248;2023-04-03T14:34:56;11.85;;;5.05;;
43706;SDS011;61348;53.392;-6.248;2023-04-03T14:37:25;14.05;;;3.63;;
43706;SDS011;61348;53.392;-6.248;2023-04-03T14:39:56;15.48;;;3.92;;
43706;SDS011;61348;53.392;-6.248;2023-04-03T14:42:26;7.18;;;2.95;;
43706;SDS011;61348;53.392;-6.248;2023-04-03T14:44:57;11.35;;;3.63;;
43706;SDS011;61348;53.392;-6.248;2023-04-03T14:47:25;10.88;;;3.58;;
43706;SDS011;61348;53.392;-6.248;2023-04-03T14:49:58;11.10;;;4.28;;
43706;SDS011;61348;53.392;-6.248;2023-04-03T14:52:28;13.90;;;3.50;;
43706;SDS011;61348;53.392;-6.248;2023-04-03T14:54:57;9.98;;;3.00;;
43706;SDS011;61348;53.392;-6.248;2023-04-03T14:57:25;11.95;;;3.47;;
43706;SDS011;61348;53.392;-6.248;2023-04-03T14:59:53;16.02;;;3.95;;
43706;SDS011;61348;53.392;-6.248;2023-04-03T15:04:59;11.95;;;3.47;;
43706;SDS011;61348;53.392;-6.248;2023-04-03T15:07:27;14.05;;;4.07;;
43706;SDS011;61348;53.392;-6.248;2023-04-03T15:09:55;16.35;;;5.22;;
43706;SDS011;61348;53.392;-6.248;2023-04-03T15:12:23;16.90;;;4.13;;
43706;SDS011;61348;53.392;-6.248;2023-04-03T15:14:50;12.75;;;3.88;;
43706;SDS011;61348;53.392;-6.248;2023-04-03T15:17:25;16.85;;;5.85;;
43706;SDS011;61348;53.392;-6.248;2023-04-03T15:19:52;16.08;;;4.47;;
43706;SDS011;61348;53.392;-6.248;2023-04-03T15:22:19;12.63;;;3.83;;
43706;SDS011;61348;53.392;-6.248;2023-04-03T15:24:46;11.35;;;4.22;;
43706;SDS011;61348;53.392;-6.248;2023-04-03T15:27:13;11.23;;;4.25;;
43706;SDS011;61348;53.392;-6.248;2023-04-03T15:29:42;10.93;;;4.25;;
43706;SDS011;61348;53.392;-6.248;2023-04-03T15:32:09;10.13;;;4.22;;
43706;SDS011;61348;53.392;-6.248;2023-04-03T15:34:37;12.07;;;3.47;;
43706;SDS011;61348;53.392;-6.248;2023-04-03T15:37:04;9.68;;;3.85;;
43706;SDS011;61348;53.392;-6.248;2023-04-03T15:39:31;12.75;;;4.07;;
43706;SDS011;61348;53.392;-6.248;2023-04-03T15:41:58;17.10;;;3.45;;
43706;SDS011;61348;53.392;-6.248;2023-04-03T15:44:33;13.13;;;2.95;;
43706;SDS011;61348;53.392;-6.248;2023-04-03T15:47:00;14.10;;;3.60;;
43706;SDS011;61348;53.392;-6.248;2023-04-03T15:49:28;9.07;;;3.35;;
43706;SDS011;61348;53.392;-6.248;2023-04-03T15:51:55;12.95;;;3.67;;
43706;SDS011;61348;53.392;-6.248;2023-04-03T15:54:21;12.95;;;3.72;;
43706;SDS011;61348;53.392;-6.248;2023-04-03T15:56:50;8.73;;;5.07;;
43706;SDS011;61348;53.392;-6.248;2023-04-03T15:59:17;10.73;;;4.05;;
43706;SDS011;61348;53.392;-6.248;2023-04-03T16:01:45;13.23;;;2.72;;
43706;SDS011;61348;53.392;-6.248;2023-04-03T16:04:12;12.57;;;3.50;;
43706;SDS011;61348;53.392;-6.248;2023-04-03T16:06:41;15.43;;;3.85;;
43706;SDS011;61348;53.392;-6.248;2023-04-03T16:09:08;7.75;;;3.78;;
43706;SDS011;61348;53.392;-6.248;2023-04-03T16:11:36;11.98;;;3.40;;
43706;SDS011;61348;53.392;-6.248;2023-04-03T16:14:06;14.68;;;3.60;;
43706;SDS011;61348;53.392;-6.248;2023-04-03T16:16:33;13.40;;;3.80;;
43706;SDS011;61348;53.392;-6.248;2023-04-03T16:19:01;18.52;;;4.35;;
43706;SDS011;61348;53.392;-6.248;2023-04-03T16:21:29;13.93;;;3.38;;
43706;SDS011;61348;53.392;-6.248;2023-04-03T16:23:57;18.35;;;5.05;;
43706;SDS011;61348;53.392;-6.248;2023-04-03T16:26:24;15.35;;;3.47;;